Aviation Digital Data Service (ADDS)

Output produced by TAFs form (2221 UTC 28 August 2016)
found at http://www.aviationweather.gov/adds/tafs/
 
KALB 281720Z 2818/2918 17012KT P6SM FEW100 SCT150 
     FM282200 19010KT P6SM VCSH SCT050 BKN150 
     FM290700 20005KT P6SM BKN050 BKN250 
     FM291200 28007KT P6SM SCT015 SCT250 
     FM291500 31012G19KT P6SM SKC